Terminal Aerodrome Forecast
Issued by NWS Melbourne, FL

Home | Current Version | Previous Version | Text Only | Print | Product List | Glossary On
Versions: 1 2 3 4 5 6 7 8 9 10 11 12 13
000
FTUS42 KMLB 222323
TAFVRB
TAF
KVRB 222323Z 2300/2324 08007KT P6SM BKN015 BKN250
     FM230300 04005KT P6SM SCT015 SCT060 BKN250
     FM231400 06010KT P6SM SCT030
     FM231800 06011KT P6SM SCT035=

USA.gov is the U.S. government's official web portal to all federal, state and local government web resources and services.